Flight Track Log - Related Links

Times and Time Zones

All times are in EST time to prevent confusion due to time zone crossing. See the AWE1766 flight status page for this flight to view local times or setup timezone preferences in your user account.

Time Position Orientation Groundspeed Altitude Reporting Facility
EST Latitude Longitude Course Direction KTS MPH feet Rate Location/Type
Thu 12:00:08 PM 42.9261 -78.7489 213° Southwest 150 173 2,200  Level Cleveland Center
Thu 12:00:38 PM 42.9167 -78.7667 234° Southwest 145 167 3,100 2,419 Climbing Buffalo TRACON
Thu 12:02:00 PM 42.6426 -78.8261 198° South  Level Estimated
Thu 12:02:12 PM 42.8192 -78.8164 201° Southwest 239 275 7,200  Level Cleveland Center
Thu 12:03:00 PM 42.5433 -78.8577 216° Southwest  Level Estimated
Thu 12:03:14 PM 42.7467 -78.8508 199° South 260 299 10,200  Level Cleveland Center
Thu 12:04:00 PM 42.4440 -78.8893 202° Southwest  Level Estimated
Thu 12:04:16 PM 42.6664 -78.8906 200° South 309 356 11,800  Level Cleveland Center
Thu 12:05:00 PM 42.3584 -78.9642 213° Southwest  Level FlightAware Approximate
Thu 12:05:18 PM 42.5753 -78.9339 199° South 345 397 14,500  Level Cleveland Center
Thu 12:06:20 PM 42.4892 -78.9886 205° Southwest 344 396 17,300 2,516 Climbing Cleveland Center
Thu 12:07:22 PM 42.4089 -79.0475 208° Southwest 342 394 19,700 2,177 Climbing Cleveland Center
Thu 12:08:24 PM 42.3222 -79.1092 208° Southwest 354 407 21,800 2,098 Climbing Cleveland Center
Thu 12:09:25 PM 42.2150 -79.1856 208° Southwest 370 426 24,000 1,902 Climbing Cleveland Center
Thu 12:10:27 PM 42.1222 -79.2525 208° Southwest 380 437 25,700 1,597 Climbing Cleveland Center
Thu 12:11:29 PM 42.0272 -79.3194 208° Southwest 387 445 27,300 1,258 Climbing Cleveland Center
Thu 12:12:31 PM 41.9300 -79.3872 207° Southwest 396 456 28,300 1,210 Climbing Cleveland Center
Thu 12:13:33 PM 41.8433 -79.4803 219° Southwest 399 459 29,800 1,548 Climbing Cleveland Center
Thu 12:14:35 PM 41.7408 -79.5892 218° Southwest 395 455 31,500 1,403 Climbing Cleveland Center
Thu 12:15:37 PM 41.6469 -79.6742 214° Southwest 412 474 32,700 726 Climbing Cleveland Center
Thu 12:16:39 PM 41.5439 -79.7411 206° Southwest 414 476 33,000 242 Climbing Cleveland Center
Thu 12:17:41 PM 41.4394 -79.8097 206° Southwest 419 482 33,200 774 Climbing Cleveland Center
Thu 12:18:43 PM 41.3372 -79.8789 207° Southwest 418 481 34,600 871 Climbing Cleveland Center
Thu 12:19:45 PM 41.2150 -79.9583 206° Southwest 411 473 35,000 194 Climbing Cleveland Center
Thu 12:20:47 PM 41.1172 -80.0239 207° Southwest 410 472 35,000 242 Level Cleveland Center
Thu 12:21:49 PM 41.0142 -80.0917 206° Southwest 415 478 35,500 774 Climbing Cleveland Center
Thu 12:22:51 PM 40.9119 -80.1597 207° Southwest 416 479 36,600 968 Climbing Cleveland Center
Thu 12:23:53 PM 40.8081 -80.2264 206° Southwest 409 471 37,500 677 Climbing Cleveland Center
Thu 12:24:55 PM 40.6861 -80.3064 206° Southwest 412 474 38,000 242 Climbing Cleveland Center
Thu 12:25:57 PM 40.5875 -80.3700 206° Southwest 410 472 38,000  Level Cleveland Center
Thu 12:26:59 PM 40.4878 -80.4353 206° Southwest 407 468 38,000  Level Cleveland Center
Thu 12:28:01 PM 40.3872 -80.4992 206° Southwest 409 471 38,000  Level Cleveland Center
Thu 12:29:03 PM 40.2867 -80.5653 207° Southwest 408 470 38,000  Level Cleveland Center
Thu 12:30:05 PM 40.1639 -80.6444 206° Southwest 412 474 38,000  Level Cleveland Center
Thu 12:31:07 PM 40.0625 -80.7094 206° Southwest 409 471 38,000  Level Cleveland Center
Thu 12:32:09 PM 39.9581 -80.7744 206° Southwest 417 480 38,000  Level Cleveland Center
Thu 12:33:11 PM 39.8544 -80.8406 206° Southwest 416 479 38,000  Level Cleveland Center
Thu 12:34:13 PM 39.7508 -80.9061 206° Southwest 417 480 38,000  Level Cleveland Center
Thu 12:35:15 PM 39.6275 -80.9839 206° Southwest 413 475 38,000  Level Cleveland Center
Thu 12:36:17 PM 39.5194 -81.0350 200° South 417 480 38,000  Level Cleveland Center
Thu 12:37:19 PM 39.4058 -81.0783 196° South 426 490 38,000  Level Cleveland Center
Thu 12:38:21 PM 39.2919 -81.1194 196° South 424 488 38,000  Level Cleveland Center
Thu 12:39:23 PM 39.1625 -81.1653 195° South 424 488 38,000  Level Cleveland Center
Thu 12:40:25 PM 39.0489 -81.2078 196° South 425 489 38,000  Level Cleveland Center
Thu 12:41:27 PM 38.9347 -81.2492 196° South 425 489 38,000  Level Cleveland Center
Thu 12:42:29 PM 38.8206 -81.2897 195° South 425 489 38,000  Level Cleveland Center
Thu 12:43:31 PM 38.7075 -81.3311 196° South 422 486 38,000  Level Cleveland Center
Thu 12:44:33 PM 38.5947 -81.3719 196° South 421 484 38,000  Level Cleveland Center
Thu 12:45:35 PM 38.4581 -81.4225 196° South 426 490 38,000 -435 Level Cleveland Center
Thu 12:46:37 PM 38.3450 -81.4625 196° South 421 484 37,100 -912 Descending Cleveland Center
Thu 12:47:40 PM 38.2306 -81.5033 196° South 426 490 36,100 -765 Descending Cleveland Center
Thu 12:49:06 PM 38.0717 -81.5619 196° South 430 495 35,200 -811 Descending Indianapolis Center
Thu 12:50:08 PM 37.9550 -81.6028 195° South 434 499 34,100 -871 Descending Indianapolis Center
Thu 12:51:10 PM 37.8156 -81.6511 195° South 437 503 33,400 -823 Descending Indianapolis Center
Thu 12:52:12 PM 37.6997 -81.6928 196° South 433 498 32,400 -968 Descending Indianapolis Center
Thu 12:53:14 PM 37.5831 -81.7333 195° South 434 499 31,400 -968 Descending Indianapolis Center
Thu 12:54:16 PM 37.4642 -81.7758 196° South 440 506 30,400 -968 Descending Indianapolis Center
Thu 12:55:18 PM 37.3444 -81.8164 195° South 442 509 29,400 -968 Descending Indianapolis Center
Thu 12:56:20 PM 37.2264 -81.8569 195° South 439 505 28,400 -677 Descending Indianapolis Center
Thu 12:57:22 PM 37.0939 -81.9036 196° South 425 489 28,000 -194 Descending Indianapolis Center
Thu 12:58:24 PM 36.9792 -81.9436 196° South 425 489 28,000 -145 Level Indianapolis Center
Thu 12:59:26 PM 36.8633 -81.9844 196° South 428 493 27,700 -478 Descending Indianapolis Center
Thu 01:00:17 PM 36.7589 -82.0125 192° South 425 489 27,100 -649 Descending Atlanta Center
Thu 01:01:17 PM 36.6397 -81.9844 169° South 438 504 26,500 -800 Descending Atlanta Center
Thu 01:02:17 PM 36.5286 -81.9589 170° South 426 490 25,500 -1,100 Descending Atlanta Center
Thu 01:03:17 PM 36.4156 -81.9336 170° South 414 476 24,300 -1,100 Descending Atlanta Center
Thu 01:04:17 PM 36.3067 -81.9106 170° South 409 471 23,300 -2,100 Descending Atlanta Center
Thu 01:05:17 PM 36.1994 -81.8619 160° South 403 464 20,100 -2,500 Descending Atlanta Center
Thu 01:06:17 PM 36.1006 -81.8133 158° South 398 458 18,300 -1,600 Descending Atlanta Center
Thu 01:07:17 PM 36.0039 -81.7722 161° South 386 444 16,900 -1,500 Descending Atlanta Center
Thu 01:08:17 PM 35.9072 -81.7264 159° South 375 432 15,300 -1,550 Descending Atlanta Center
Thu 01:09:17 PM 35.8147 -81.6853 160° South 370 426 13,800 -1,554 Descending Atlanta Center
Thu 01:10:09 PM 35.7367 -81.6467 158° South 343 395 12,400 -1,600 Descending Atlanta Center
Thu 01:10:17 PM 35.7261 -81.6444 170° South 355 409 12,200 -1,082 Descending Atlanta Center
Thu 01:11:10 PM 35.6461 -81.6083 160° South 326 375 11,300 -1,000 Descending Atlanta Center
Thu 01:11:17 PM 35.6419 -81.6033 136° Southeast 341 392 11,200 -269 Descending Atlanta Center
Thu 01:12:17 PM 35.5761 -81.5417 143° Southeast 300 345 11,000 -362 Descending Atlanta Center
Thu 01:13:13 PM 35.5511 -81.4531 109° East 319 367 10,500 -600 Descending Atlanta Center
Thu 01:13:17 PM 35.5511 -81.4453 90° East 280 322 10,400 -656 Descending Atlanta Center
Thu 01:14:17 PM 35.5508 -81.3433 90° East 280 322 9,800 -571 Descending Atlanta Center
Thu 01:14:20 PM 35.5508 -81.3408 90° East 292 336 9,800 -938 Level Atlanta Center
Thu 01:15:21 PM 35.5508 -81.2464 90° East 250 288 8,800 -923 Descending Atlanta Center
Thu 01:16:17 PM 35.5556 -81.1772 85° East 268 308 8,000 -885 Descending Atlanta Center
Thu 01:16:22 PM 35.5594 -81.1642 70° East 238 274 7,900 -1,000 Descending Atlanta Center
Thu 01:17:17 PM 35.5642 -81.0978 85° East 253 291 7,000 -1,082 Descending Atlanta Center
Thu 01:17:23 PM 35.5681 -81.0875 65° Northeast 227 261 6,800 -1,000 Descending Atlanta Center
Thu 01:18:17 PM 35.5436 -81.0322 119° Southeast 221 254 6,000 -787 Descending Atlanta Center
Thu 01:18:24 PM 35.5372 -81.0222 128° Southeast 209 241 6,000  Level Atlanta Center
Thu 01:19:17 PM 35.5011 -80.9953 149° Southeast 194 223 6,000  Level Atlanta Center
Thu 01:19:25 PM 35.4864 -80.9933 174° South 175 201 6,000 -783 Level Atlanta Center
Thu 01:20:26 PM 35.4383 -80.9900 177° South 175 201 5,100 -934 Descending Atlanta Center
Thu 01:21:27 PM 35.3922 -80.9842 174° South 173 199 4,100 -976 Descending Atlanta Center
Thu 01:22:29 PM 35.3442 -80.9783 174° South 166 191 3,100 -780 Descending Atlanta Center
Thu 01:23:30 PM 35.3067 -80.9772 179° South 138 159 2,500 -689 Descending Atlanta Center
Thu 01:24:31 PM 35.2689 -80.9733 175° South 117 135 1,700 -724 Descending Atlanta Center
Thu 01:25:26 PM 35.2378 -80.9719 178° South 122 140 1,100 -655 Descending Atlanta Center

Login

Don't have an account? Register now (free) for customized features, flight alerts, and more!